Weather at Siau/Sitaro Airport

Public forecast

Using degrees Celsius for public forecast. Weather courtesy of forecast.io.

Closest aviation weather report (METAR) to Siau/Sitaro Airport

Closest report is Sam Ratulangi Airport, 72.4 nm (134.1 km) SSW.

2024/05/27 22:00 (retrieved 17 minutes ago)

WAMM 272200Z 16003KT 110V220 9999 FEW020 26/24 Q1010 NOSIG

Closest aviation forecast (TAF) to Siau/Sitaro Airport

Closest forecast is Sam Ratulangi Airport, 72.4 nm (134.1 km) SSW.

2024/05/27 18:03 (retrieved 4 hours ago)

TAF TAF WAMM 271700Z 2718/2824 VRB02KT 9999 SCT020 BECMG 2800/2802 15010KT